Pagrindinis puslapis
METAR-TAF:

METAR-TAF

Oro uostai :

Çardak, Turkija

platuma: 37-47N, ilguma: 029-42E, Aukštis: 849 m

Dabartinis oras

Ataskaita buvo paskelbta 18 minutes, ne 05:50 UTC
Vėjas 4 kt iš Vakarų, svyruoja nuo Vakarų ir Šiaurės Vakarų
Temperatūra 7°C
Drėgmė 76%
Slėgis 1014 hPa
Matomumas 10 km arba daugiau
nėra debesų žemiau 1500 m ir nėra kamuolinių lietaus debesų

METAR: LTAY 100550Z 28004KT 260V320 CAVOK 07/03 Q1014

Laikas: 09:08 (06:08 UTC)

Prognozė

Ataskaita buvo paskelbta 1 valandą ir 28 minutes, ne 04:40 UTC
Prognozė galioja nuo 10 metu 06 UTC su 10 metu 15 UTC
Vėjas 2 kt nuo kintamojo kryptimis
Matomumas 10 km arba daugiau
nėra debesų žemiau 1500 m ir nėra kamuolinių lietaus debesų
Tapsmas
nuo 10 metu 06 UTC su 10 metu 09 UTC
Išsisklaidę debesys ne aukštis 3500 ft
Tapsmas
nuo 10 metu 11 UTC su 10 metu 13 UTC
Vėjas 12 kt iš Vakarų

TAF: LTAY 100440Z 1006/1015 VRB02KT CAVOK BECMG 1006/1009 SCT035 BECMG 1011/1013 27012KT

Orai ataskaitas ir orų prognozės (METAR, TAF).

turimą stotys yra geltonos ir raudonos taškus žemėlapyje.

Perkelti pele per norėdami pamatyti stoties vardą.

Tada spustelėkite, norėdami matyti oro stebėjimo ir prognozės.

Norėdami pakeisti žemėlapį: spustelėkite ant žalios mygtukų su juodo kryžiaus žemyn,; žalią mygtuką su brūkšneliu, jei norite nutolinti; arba žalių rodyklių gretimoms žemėlapius.


METAR-TAF: